createdAt,value
2022-08-03T00:02:27.198Z,100884.13
2022-08-03T00:07:30.086Z,100887.98
2022-08-03T00:12:33.030Z,100890.64
2022-08-03T00:17:53.051Z,100897.45
2022-08-03T00:22:57.353Z,100907.55
2022-08-03T00:28:01.451Z,100907.77
2022-08-03T00:33:04.409Z,100904.16
2022-08-03T00:38:07.445Z,100900.34
2022-08-03T00:43:10.932Z,100900.89
2022-08-03T00:48:29.757Z,100902.56
2022-08-03T00:53:36.463Z,100903.10
2022-08-03T00:58:39.327Z,100903.27
2022-08-03T01:03:42.312Z,100901.93
2022-08-03T01:09:17.317Z,100901.45
2022-08-03T01:14:27.665Z,100906.92
2022-08-03T01:20:10.802Z,100912.24
2022-08-03T01:25:59.420Z,100905.20
2022-08-03T01:31:06.985Z,100905.92
2022-08-03T01:36:26.985Z,100904.98
2022-08-03T01:41:33.841Z,100903.73
2022-08-03T01:46:38.354Z,100900.02
2022-08-03T01:52:02.698Z,100899.54
2022-08-03T01:57:05.858Z,100895.91
2022-08-03T02:02:15.664Z,100893.27
2022-08-03T02:07:32.229Z,100885.72
2022-08-03T02:12:35.126Z,100885.27
2022-08-03T02:17:39.501Z,100886.34
2022-08-03T02:22:43.924Z,100886.48
2022-08-03T02:27:52.937Z,100885.19
2022-08-03T02:32:56.459Z,100881.86
2022-08-03T02:38:04.344Z,100889.39
2022-08-03T02:43:10.715Z,100888.98
2022-08-03T02:48:18.339Z,100893.23
2022-08-03T02:53:22.255Z,100890.65
2022-08-03T02:58:25.084Z,100890.95
2022-08-03T03:03:27.840Z,100886.86
2022-08-03T03:08:33.503Z,100891.35
2022-08-03T03:13:38.027Z,100898.73
2022-08-03T03:18:40.837Z,100901.58
2022-08-03T03:23:43.707Z,100906.22
2022-08-03T03:28:46.616Z,100910.94
2022-08-03T03:33:49.477Z,100911.50
2022-08-03T03:38:53.770Z,100910.69
2022-08-03T03:43:56.956Z,100910.95
2022-08-03T03:48:59.879Z,100909.61
2022-08-03T03:54:04.690Z,100914.66
2022-08-03T03:59:07.544Z,100920.05
2022-08-03T04:11:29.069Z,100932.19
2022-08-03T04:16:41.873Z,100933.12
2022-08-03T04:21:48.714Z,100938.29
2022-08-03T04:26:52.870Z,100940.33
2022-08-03T04:31:56.198Z,100939.33
2022-08-03T04:37:00.876Z,100940.80
2022-08-03T04:42:09.052Z,100946.42
2022-08-03T04:47:12.438Z,100951.89
2022-08-03T04:52:15.507Z,100955.11
2022-08-03T04:57:22.473Z,100958.52
2022-08-03T05:02:26.302Z,100956.99
2022-08-03T05:07:35.621Z,100959.42
2022-08-03T05:12:42.024Z,100955.63
2022-08-03T05:17:44.956Z,100966.41
2022-08-03T05:22:47.815Z,100964.70
2022-08-03T05:27:50.544Z,100967.79
2022-08-03T05:32:53.647Z,100969.67
2022-08-03T05:37:56.450Z,100971.16
2022-08-03T05:42:59.215Z,100974.05
2022-08-03T05:48:02.064Z,100979.27
2022-08-03T05:53:04.877Z,100985.42
2022-08-03T05:58:07.663Z,100984.05
2022-08-03T06:03:10.411Z,100987.29
2022-08-03T06:08:15.454Z,100987.81
2022-08-03T06:13:18.551Z,100992.73
2022-08-03T06:18:21.489Z,100994.84
2022-08-03T06:23:53.116Z,101002.63
2022-08-03T06:28:52.157Z,101000.77
2022-08-03T06:34:32.194Z,101001.57
2022-08-03T06:39:19.219Z,101001.06
2022-08-03T06:44:22.050Z,101000.73
2022-08-03T06:49:24.997Z,100996.00
2022-08-03T06:54:28.001Z,100993.57
2022-08-03T07:00:09.848Z,100996.64
2022-08-03T07:04:53.832Z,101000.48
2022-08-03T07:09:58.201Z,101003.20
2022-08-03T07:15:03.131Z,101002.86
2022-08-03T07:20:08.219Z,101010.10
2022-08-03T07:25:11.037Z,101012.99
2022-08-03T07:30:14.721Z,101011.96
2022-08-03T07:35:24.903Z,101018.56
2022-08-03T07:40:31.635Z,101011.92
2022-08-03T07:45:34.937Z,101015.25
2022-08-03T07:50:37.698Z,101011.91
2022-08-03T07:55:40.545Z,101013.94
2022-08-03T08:00:44.796Z,101014.63
2022-08-03T08:05:48.599Z,101014.55
2022-08-03T08:10:58.215Z,101013.83
2022-08-03T08:16:01.441Z,101015.86
2022-08-03T08:21:04.308Z,101019.01
2022-08-03T08:26:09.295Z,101012.55
2022-08-03T08:31:12.059Z,101019.55
2022-08-03T08:36:15.873Z,101020.23
2022-08-03T08:41:19.454Z,101021.95
2022-08-03T08:46:23.259Z,101023.27
2022-08-03T08:51:50.981Z,101020.13
2022-08-03T08:57:06.655Z,101020.90
2022-08-03T09:02:20.104Z,101020.80
2022-08-03T09:07:23.115Z,101022.44
2022-08-03T09:12:42.625Z,101015.41
2022-08-03T09:17:50.654Z,101017.45
2022-08-03T09:22:57.602Z,101017.36
2022-08-03T09:28:13.204Z,101014.80
2022-08-03T09:33:47.593Z,101012.70
2022-08-03T09:39:14.684Z,101008.51
2022-08-03T09:44:25.670Z,101011.30
2022-08-03T09:49:29.070Z,101009.01
2022-08-03T09:54:32.592Z,101005.08
2022-08-03T09:59:35.431Z,100998.77
2022-08-03T10:04:51.077Z,100998.27
2022-08-03T10:10:29.059Z,100998.55
2022-08-03T10:16:22.022Z,100993.30
2022-08-03T10:20:59.091Z,100995.84
2022-08-03T10:26:05.568Z,100998.16
2022-08-03T10:31:08.500Z,100996.47
2022-08-03T10:36:13.668Z,100994.11
2022-08-03T10:41:16.666Z,101000.39
2022-08-03T10:46:20.681Z,100995.34
2022-08-03T10:51:24.055Z,100993.01
2022-08-03T10:56:50.975Z,100991.55
2022-08-03T11:01:59.225Z,100990.27
2022-08-03T11:07:25.420Z,100993.27
2022-08-03T11:12:32.240Z,100992.16
2022-08-03T11:17:46.162Z,100989.02
2022-08-03T11:23:01.321Z,100982.98
2022-08-03T11:28:29.257Z,100981.92
2022-08-03T11:33:33.508Z,100980.00
2022-08-03T11:38:36.219Z,100970.56
2022-08-03T11:43:44.114Z,100976.40
2022-08-03T11:48:49.350Z,100970.46
2022-08-03T11:54:00.856Z,100967.46
2022-08-03T11:59:20.768Z,100969.62
2022-08-03T12:04:24.420Z,100965.63
2022-08-03T12:09:27.199Z,100958.64
2022-08-03T12:14:49.684Z,100959.96
2022-08-03T12:19:53.387Z,100957.89
2022-08-03T12:24:56.140Z,100951.55
2022-08-03T12:30:00.175Z,100946.30
2022-08-03T12:35:04.682Z,100945.17
2022-08-03T12:40:13.270Z,100940.48
2022-08-03T12:45:20.434Z,100940.31
2022-08-03T12:50:31.575Z,100937.48
2022-08-03T12:55:56.423Z,100934.77
2022-08-03T13:00:57.733Z,100928.35
2022-08-03T13:06:00.495Z,100924.81
2022-08-03T13:11:55.418Z,100916.72
2022-08-03T13:16:49.756Z,100914.73
2022-08-03T13:22:01.918Z,100910.58
2022-08-03T13:28:01.270Z,100906.66
2022-08-03T13:32:30.471Z,100904.94
2022-08-03T13:37:34.134Z,100894.23
2022-08-03T13:42:37.150Z,100891.91
2022-08-03T13:47:41.544Z,100896.48
2022-08-03T13:52:46.373Z,100890.97
2022-08-03T13:58:03.731Z,100885.58
2022-08-03T14:03:14.242Z,100884.72
2022-08-03T14:08:18.323Z,100881.38
2022-08-03T14:13:21.203Z,100881.77
2022-08-03T14:18:28.805Z,100879.66
2022-08-03T14:23:37.853Z,100875.52
2022-08-03T14:28:40.984Z,100871.31
2022-08-03T14:33:43.791Z,100864.80
2022-08-03T14:38:46.533Z,100858.88
2022-08-03T14:44:01.658Z,100855.15
2022-08-03T14:50:34.541Z,100855.30
2022-08-03T14:54:31.125Z,100853.48
2022-08-03T14:59:56.793Z,100848.73
2022-08-03T15:04:56.885Z,100845.71
2022-08-03T15:09:59.705Z,100846.98
2022-08-03T15:15:06.048Z,100845.32
2022-08-03T15:20:28.885Z,100836.96
2022-08-03T15:26:27.884Z,100838.72
2022-08-03T15:30:57.073Z,100839.11
2022-08-03T15:36:00.334Z,100833.63
2022-08-03T15:41:03.270Z,100831.20
2022-08-03T15:46:28.822Z,100831.21
2022-08-03T15:51:29.012Z,100828.73
2022-08-03T15:56:31.910Z,100821.47
2022-08-03T16:01:34.898Z,100817.29
2022-08-03T16:06:37.840Z,100810.48
2022-08-03T16:11:40.680Z,100804.10
2022-08-03T16:16:44.038Z,100800.39
2022-08-03T16:21:48.727Z,100796.50
2022-08-03T16:26:51.918Z,100795.57
2022-08-03T16:31:54.699Z,100798.62
2022-08-03T16:36:57.611Z,100791.71
2022-08-03T16:42:01.731Z,100789.08
2022-08-03T16:47:04.913Z,100789.34
2022-08-03T16:52:07.806Z,100790.91
2022-08-03T16:57:10.517Z,100793.71
2022-08-03T17:02:28.340Z,100794.12
2022-08-03T17:07:31.683Z,100797.56
2022-08-03T17:12:34.484Z,100798.73
2022-08-03T17:17:56.263Z,100799.71
2022-08-03T17:23:34.855Z,100808.27
2022-08-03T17:28:51.975Z,100816.77
2022-08-03T17:34:01.443Z,100820.19
2022-08-03T17:39:06.505Z,100827.80
2022-08-03T17:44:15.423Z,100829.58
2022-08-03T17:49:32.369Z,100836.40
2022-08-03T17:55:54.915Z,100844.08
2022-08-03T18:00:55.885Z,100849.03
2022-08-03T18:06:11.106Z,100855.04
2022-08-03T18:11:21.792Z,100859.04
2022-08-03T18:17:01.249Z,100862.08
2022-08-03T18:22:04.578Z,100864.67
2022-08-03T18:27:08.042Z,100872.86
2022-08-03T18:32:16.746Z,100878.94
2022-08-03T18:37:25.739Z,100883.05
2022-08-03T18:42:28.889Z,100889.27
2022-08-03T18:47:58.087Z,100894.90
2022-08-03T18:53:22.897Z,100905.25
2022-08-03T18:59:02.517Z,100908.81
2022-08-03T19:04:35.114Z,100914.16
2022-08-03T19:09:52.630Z,100909.05
2022-08-03T19:15:12.959Z,100910.63
2022-08-03T19:20:22.783Z,100915.20
2022-08-03T19:25:34.676Z,100918.59
2022-08-03T19:30:46.433Z,100917.97
2022-08-03T19:35:57.128Z,100921.19
2022-08-03T19:41:03.792Z,100924.96
2022-08-03T19:46:14.136Z,100924.09
2022-08-03T19:51:17.078Z,100924.18
2022-08-03T19:56:24.712Z,100924.14
2022-08-03T20:01:28.254Z,100923.27
2022-08-03T20:06:31.181Z,100925.25
2022-08-03T20:11:45.228Z,100924.31
2022-08-03T20:16:48.749Z,100924.60
2022-08-03T20:21:53.486Z,100928.39
2022-08-03T20:26:58.344Z,100926.14
2022-08-03T20:32:01.437Z,100929.03
2022-08-03T20:37:05.283Z,100926.99
2022-08-03T20:42:12.536Z,100928.77
2022-08-03T20:47:23.645Z,100929.67
2022-08-03T20:52:28.136Z,100932.14
2022-08-03T20:57:33.174Z,100931.96
2022-08-03T21:02:38.186Z,100934.96
2022-08-03T21:08:05.078Z,100938.08
2022-08-03T21:13:28.599Z,100943.77
2022-08-03T21:18:31.469Z,100946.56
2022-08-03T21:23:41.541Z,100950.88
2022-08-03T21:28:52.664Z,100951.83
2022-08-03T21:34:01.705Z,100949.72
2022-08-03T21:39:07.098Z,100953.50
2022-08-03T21:44:10.081Z,100960.29
2022-08-03T21:49:51.915Z,100961.41
2022-08-03T21:54:42.595Z,100960.92
2022-08-03T21:59:55.765Z,100961.77
2022-08-03T22:04:58.566Z,100964.73
2022-08-03T22:10:02.451Z,100968.50
2022-08-03T22:15:09.021Z,100963.42
2022-08-03T22:20:14.741Z,100967.33
2022-08-03T22:25:17.509Z,100966.84
2022-08-03T22:30:20.281Z,100966.71
2022-08-03T22:35:24.829Z,100968.76
2022-08-03T22:40:28.153Z,100969.23
2022-08-03T22:46:07.817Z,100965.80
2022-08-03T22:50:53.925Z,100968.27
2022-08-03T22:55:56.862Z,100964.50
2022-08-03T23:01:09.035Z,100959.38
2022-08-03T23:06:11.802Z,100962.69
2022-08-03T23:11:14.558Z,100963.33
2022-08-03T23:16:28.924Z,100964.34
2022-08-03T23:22:00.154Z,100965.88
2022-08-03T23:26:55.519Z,100962.16
2022-08-03T23:31:59.588Z,100959.67
2022-08-03T23:37:02.454Z,100956.52
2022-08-03T23:42:05.308Z,100954.29
2022-08-03T23:47:09.147Z,100958.02
2022-08-03T23:52:29.981Z,100959.09
2022-08-03T23:57:46.820Z,100952.43
